SBOSBO VCE / LIPZ
Speedbird OnlineSpeedbird Online VCE / LIPZ

Venice Marco Polo Airport
06:30 2°C

Location Venice, Italy
Latitude: 45.505299
Longitude: 12.3519
Web Airport Website | Wikipedia
Altitude 2 Meter / 7 Feet
Distance 1,118 KM / 695 Miles
from London.
Time Zone UTC +1 hours (Europe/Rome)
Codes IATA: VCE
ICAO: LIPZ
Currency £1 equals EUR 1.14
Runways
RunwayLength (m)Surface
04L2780Asphalt
04R3300Asphalt
22L3300Asphalt
22R2780Asphalt
Radio
TypeDescriptionFrequency
APPAPP118.9
ATISATIS122.225
GNDGND121.7
TWRTWR120.2
Live ATC
METAR LIPZ 290450Z 03007KT CAVOK 02/M03 Q1025 NOSIG
TAF TAF LIPZ 282300Z 2900/3006 05007KT CAVOK
Weather As Of 29 Jan 2023 06:30
Description Clear sky
Wind 13 km/h from North-East (30°)
Cloud Cover 0%
Precipitation Rain: none, Snow: none
Sunrise 07:35
Sunset 17:11
Lounges Venice Marco Polo Lounge , Main terminal
Rotations During the last 90 days there were
249 flights from LHR
251 flights to LHR



Support Speedbird Online

© 2017-2023 Speedbird Online